Airfield :
LOGIN :

Register | Disclaimer

   EN    FR    IT 

 










Legend :    VFR   Marginal VFR   IFR   Intensive IFR   Very Intensive IFR
Visi :
Ceiling :
>= 8 km
>= 3000ft
5 to 8 km
1000 to 3000 ft
1500m to 5 km
500 to 1000 ft
800 to 1500m
200 to 500 ft
< 800m
< 200 ft
Symbols :   Thunderstorms  Fog  Heavy snow  Heavy precipitations  Wind > 20 kt
SIGMETs :     Misc.  Thunderstorms  Icing  Turbulence  Mountain Waves  Volcanic Ashes







- Airport Elevation : 26 ft
- IATA code : BIA
- Download approach charts


LFKB - Bastia

CURRENT METAR :
  • 221800Z AUTO 12004KT 9999 ///CB 24/17 Q1011 BECMG TS FEW026 SCT100 BKN230

EXPIRED METARs :
  • 221730Z AUTO 13007KT 9999 TS FEW043/// BKN120/// BKN160/// ///CB 24/17 Q1011 BECMG FEW026 SCT100 BKN230
  • 221700Z AUTO 09004KT 040V130 9999 VCTS ///CB 26/17 Q1010 BECMG FEW026 SCT100 BKN230
  • 221630Z AUTO 14007KT 9999 VCTS FEW046/// OVC140/// ///CB 28/18 Q1010 BECMG FEW026 SCT100 BKN230
  • 221600Z AUTO 14007KT 110V190 9999 TS ///CB 27/19 Q1010 NOSIG
  • 221530Z AUTO 15006KT 120V180 9999 VCTS FEW078/// ///CB 29/20 Q1010 NOSIG

TAF AMD TAF LFKB
Valid from the 22 at 15:00 until the 23 at 15:00 UTC


221508Z 2215/2315 14010KT 9999 TS FEW026CB TX29/2212Z TN21/2300Z
BECMG 2218/2220 FEW026 SCT100 BKN230
TEMPO 2300/2306 SHRA SCT026TCU BKN100
PROB40
TEMPO 2300/2306 TSRA FEW026CB
ATIS : +33 4 95 59 19 40
No reported NOTAMs for that airfield.
1 SIGMET reported for the Marseille FIR (LFMM) :
 
Embedded thunderstorms
LFMM SIGMET 3 VALID 221800/222000 LFPW
LFMM MARSEILLE FIR/UIR EMBD TS OBS AT 1800Z WI N4500 E00700 - N4400 E00700 - N4400 E00715 - N4330 E00615 - N4445 E00530 - N4500 E00700 TOP FL350 STNR NC=



MET'MAP, your aeronautical weather chart ! - Copyright ORBIFLY December 2007 - Disclaimer

ORBIFLY MET'MAP TEAM :

Programming & Development : Alexandra Zaïnal
Concept & Development : Baudouin d'Aumeries
Co-Development & Prog : Marc-Olivier Méhu
Technical & hardware support : Manuel Goepfert

Contact : metmap@orbifly.com




SOURCES & CREDITS :

   NOAA